AFA189 RCFN-RCFN

Flight info

Callsign AFA189
Flight time 0h 16m
Altitude 1100
Route DCT ZN DCT
Aircraft DA40/L-SBDFGRY/LB2

Departure

Time 2026-04-12 03:01
Airport Taitung Airport (RCFN)

Arrival

Time 2026-04-12 03:17
Airport Taitung Airport (RCFN)
Time Latitude Longitude Altitude Speed Heading
2026-04-12 02:36 22.75939 121.10328 141 ft 0 kts 39°
2026-04-12 02:52 22.75941 121.10330 141 ft 0 kts 40°
2026-04-12 02:52 22.75946 121.10336 141 ft 4 kts 63°
2026-04-12 02:52 22.75928 121.10375 140 ft 3 kts 103°
2026-04-12 02:53 22.75970 121.10427 139 ft 18 kts 38°
2026-04-12 02:53 22.76071 121.10514 136 ft 18 kts 38°
2026-04-12 02:53 22.76265 121.10681 132 ft 18 kts 39°
2026-04-12 02:54 22.76358 121.10762 133 ft 16 kts 39°
2026-04-12 02:54 22.76382 121.10815 133 ft 0 kts 126°
2026-04-12 02:59 22.76379 121.10819 133 ft 5 kts 127°
2026-04-12 02:59 22.76312 121.10879 134 ft 10 kts 198°
2026-04-12 02:59 22.76299 121.10868 134 ft 0 kts 220°
2026-04-12 03:00 22.76245 121.10821 134 ft 37 kts 220°
2026-04-12 03:00 22.75911 121.10528 198 ft 76 kts 217°
2026-04-12 03:00 22.75495 121.10160 415 ft 79 kts 218°
2026-04-12 03:00 22.75069 121.09798 712 ft 76 kts 216°
2026-04-12 03:01 22.74636 121.09446 910 ft 80 kts 214°
2026-04-12 03:01 22.74182 121.09080 1097 ft 84 kts 214°
2026-04-12 03:01 22.73931 121.08466 1116 ft 100 kts 276°
2026-04-12 03:01 22.74320 121.07811 1122 ft 110 kts 318°
2026-04-12 03:02 22.75021 121.07762 1068 ft 114 kts 38°
2026-04-12 03:02 22.75650 121.08270 1063 ft 112 kts 41°
2026-04-12 03:02 22.76262 121.08786 1085 ft 105 kts 40°
2026-04-12 03:02 22.76834 121.09239 1101 ft 103 kts 38°
2026-04-12 03:03 22.77428 121.09679 1094 ft 104 kts 38°
2026-04-12 03:03 22.78004 121.10153 1097 ft 104 kts 43°
2026-04-12 03:03 22.78561 121.10650 1097 ft 102 kts 43°
2026-04-12 03:03 22.79038 121.11191 1060 ft 96 kts 73°
2026-04-12 03:04 22.78956 121.11856 904 ft 93 kts 134°
2026-04-12 03:04 22.78494 121.12302 826 ft 75 kts 144°
2026-04-12 03:04 22.78030 121.12417 671 ft 76 kts 195°
2026-04-12 03:04 22.77634 121.12022 524 ft 84 kts 224°
2026-04-12 03:05 22.77197 121.11646 453 ft 75 kts 215°
2026-04-12 03:05 22.76779 121.11277 294 ft 79 kts 214°
2026-04-12 03:05 22.76354 121.10916 179 ft 76 kts 216°
2026-04-12 03:05 22.75981 121.10592 139 ft 56 kts 217°
2026-04-12 03:06 22.75691 121.10340 143 ft 69 kts 218°
2026-04-12 03:06 22.75264 121.09971 316 ft 80 kts 217°
2026-04-12 03:06 22.74850 121.09599 601 ft 75 kts 218°
2026-04-12 03:06 22.74406 121.09207 736 ft 83 kts 219°
2026-04-12 03:07 22.74051 121.08732 976 ft 85 kts 253°
2026-04-12 03:07 22.74251 121.08096 1084 ft 106 kts 300°
2026-04-12 03:07 22.74886 121.07800 1089 ft 111 kts 21°
2026-04-12 03:07 22.75537 121.08270 1057 ft 112 kts 38°
2026-04-12 03:08 22.76164 121.08760 1078 ft 111 kts 39°
2026-04-12 03:08 22.76788 121.09258 1104 ft 111 kts 40°
2026-04-12 03:08 22.77390 121.09735 1145 ft 105 kts 40°
2026-04-12 03:08 22.77990 121.10209 1138 ft 107 kts 38°
2026-04-12 03:09 22.78584 121.10690 1111 ft 107 kts 40°
2026-04-12 03:09 22.79072 121.11260 1066 ft 99 kts 75°
2026-04-12 03:09 22.78938 121.11937 927 ft 92 kts 121°
2026-04-12 03:09 22.78640 121.12481 863 ft 71 kts 141°
2026-04-12 03:10 22.78169 121.12489 718 ft 78 kts 209°
2026-04-12 03:10 22.77751 121.12124 544 ft 77 kts 218°
2026-04-12 03:10 22.77323 121.11748 411 ft 80 kts 216°
2026-04-12 03:10 22.76898 121.11387 338 ft 78 kts 217°
2026-04-12 03:11 22.76478 121.11023 210 ft 76 kts 217°
2026-04-12 03:11 22.76078 121.10674 139 ft 64 kts 216°
2026-04-12 03:11 22.75780 121.10419 144 ft 59 kts 220°
2026-04-12 03:11 22.75369 121.10064 272 ft 79 kts 217°
2026-04-12 03:12 22.74955 121.09708 587 ft 74 kts 218°
2026-04-12 03:12 22.74514 121.09313 677 ft 88 kts 220°
2026-04-12 03:12 22.74106 121.08870 937 ft 84 kts 232°
2026-04-12 03:12 22.74143 121.08208 1031 ft 109 kts 307°
2026-04-12 03:13 22.74682 121.07588 1148 ft 110 kts 329°
2026-04-12 03:13 22.75397 121.07707 1048 ft 116 kts 43°
2026-04-12 03:13 22.75982 121.08260 1085 ft 111 kts 47°
2026-04-12 03:13 22.76567 121.08788 1118 ft 107 kts 41°
2026-04-12 03:14 22.77152 121.09294 1106 ft 111 kts 42°
2026-04-12 03:14 22.77730 121.09785 1169 ft 103 kts 41°
2026-04-12 03:14 22.78313 121.10269 1106 ft 106 kts 40°
2026-04-12 03:14 22.78879 121.10787 1054 ft 105 kts 45°
2026-04-12 03:15 22.79161 121.11418 976 ft 94 kts 104°
2026-04-12 03:15 22.78782 121.11941 898 ft 84 kts 136°
2026-04-12 03:15 22.78409 121.12306 799 ft 71 kts 153°
2026-04-12 03:15 22.78090 121.12343 667 ft 73 kts 190°
2026-04-12 03:16 22.77501 121.11917 483 ft 77 kts 212°
2026-04-12 03:16 22.77086 121.11546 382 ft 79 kts 216°
2026-04-12 03:16 22.76655 121.11172 259 ft 80 kts 215°
2026-04-12 03:16 22.76231 121.10806 156 ft 75 kts 215°
2026-04-12 03:17 22.75988 121.10596 139 ft 58 kts 215°
2026-04-12 03:17 22.75799 121.10443 144 ft 3 kts 277°
2026-04-12 03:17 22.75840 121.10361 142 ft 10 kts 315°
2026-04-12 03:17 22.75851 121.10354 142 ft 0 kts 317°
2026-04-12 03:18 22.75881 121.10351 142 ft 14 kts 20°
2026-04-12 03:18 22.75936 121.10355 141 ft 9 kts 314°
2026-04-12 03:18 22.75938 121.10319 141 ft 2 kts 305°
2026-04-12 03:18 22.75952 121.10300 141 ft 0 kts 352°
2026-04-12 03:19 22.75954 121.10303 141 ft 0 kts 43°